Air Quality Table

TIMESTAMP NO2 O3 PM2.5 TEMP HUM AIRPRES WS WD NO
2021-06-18 12:00 0 ug/m3 83.02 ug/m3 19.1 ug/m3 25.96 C 53.28 % 1,006.09 mbar 2.63 m/s 212.87 Deg 0 ug/m3
2021-06-18 11:00 0 ug/m3 85.48 ug/m3 20.3 ug/m3 25.96 C 54.29 % 1,006.20 mbar 2.38 m/s 207.68 Deg 0 ug/m3
2021-06-18 10:00 0 ug/m3 88.74 ug/m3 20.4 ug/m3 26 C 52.17 % 1,006.31 mbar 1.77 m/s 205 Deg 0 ug/m3
2021-06-18 09:00 0 ug/m3 81.87 ug/m3 22.1 ug/m3 25.27 C 56.24 % 1,006.32 mbar 1.44 m/s 210.57 Deg 0 ug/m3
2021-06-18 08:00 0 ug/m3 63.01 ug/m3 18.9 ug/m3 23.79 C 65.88 % 1,006.30 mbar 1.06 m/s 206.04 Deg 0 ug/m3
2021-06-18 07:00 0 ug/m3 46.1 ug/m3 17.5 ug/m3 22.55 C 72.33 % 1,006.15 mbar 0.97 m/s 185.51 Deg 0 ug/m3
2021-06-18 06:00 0 ug/m3 32.44 ug/m3 11 ug/m3 20.81 C 78.64 % 1,006.05 mbar 0.42 m/s 262.46 Deg 0 ug/m3
2021-06-18 05:00 0 ug/m3 36.02 ug/m3 9.5 ug/m3 20.48 C 77.58 % 1,005.58 mbar 0.46 m/s 267.69 Deg 0 ug/m3
2021-06-18 04:00 0 ug/m3 64.03 ug/m3 9.1 ug/m3 21.22 C 76.12 % 1,005.63 mbar 0.47 m/s 221.15 Deg 0 ug/m3
2021-06-18 03:00 0 ug/m3 80.69 ug/m3 7.8 ug/m3 21.54 C 74.99 % 1,005.25 mbar 0.71 m/s 249.8 Deg 0 ug/m3
2021-06-18 02:00 0 ug/m3 76.43 ug/m3 11.7 ug/m3 21.56 C 74.33 % 1,005.24 mbar 0.96 m/s 220.78 Deg 0 ug/m3
2021-06-18 01:00 0 ug/m3 83.42 ug/m3 12.5 ug/m3 21.67 C 73.77 % 1,005.18 mbar 1.2 m/s 195.07 Deg 0 ug/m3
2021-06-18 00:00 0 ug/m3 81.88 ug/m3 10.5 ug/m3 21.69 C 73.08 % 1,004.99 mbar 1.71 m/s 172.97 Deg 0 ug/m3
2021-06-17 23:00 0 ug/m3 73.69 ug/m3 13.7 ug/m3 21.69 C 72.02 % 1,005.93 mbar 1.16 m/s 199.75 Deg 0 ug/m3
2021-06-17 22:00 0 ug/m3 85.79 ug/m3 9.5 ug/m3 21.89 C 71.2 % 1,006.64 mbar 0.58 m/s 222.62 Deg 0 ug/m3
2021-06-17 21:00 0 ug/m3 80.52 ug/m3 8.4 ug/m3 22.04 C 69.81 % 1,006.37 mbar 0.67 m/s 245.41 Deg 0 ug/m3
2021-06-17 20:00 0 ug/m3 84.11 ug/m3 8.5 ug/m3 22.34 C 67.75 % 1,005.70 mbar 1.17 m/s 218.52 Deg 0 ug/m3
2021-06-17 19:00 0 ug/m3 89.16 ug/m3 9.8 ug/m3 23.04 C 63.61 % 1,005.43 mbar 1.63 m/s 211.3 Deg 0 ug/m3
2021-06-17 18:00 0 ug/m3 93.1 ug/m3 6.2 ug/m3 24.06 C 57.63 % 1,005.30 mbar 1.92 m/s 217.35 Deg 0 ug/m3
2021-06-17 17:00 0 ug/m3 92.01 ug/m3 10.6 ug/m3 24.75 C 54.36 % 1,005.31 mbar 2.2 m/s 227.95 Deg 0 ug/m3
2021-06-17 16:00 0 ug/m3 93.18 ug/m3 6.5 ug/m3 25.04 C 52.72 % 1,005.50 mbar 2.28 m/s 222.95 Deg 0 ug/m3
2021-06-17 15:00 0 ug/m3 94.88 ug/m3 11.3 ug/m3 25.02 C 52.46 % 1,005.71 mbar 2.44 m/s 217.25 Deg 0 ug/m3
2021-06-17 14:00 0 ug/m3 94.91 ug/m3 12.7 ug/m3 25.13 C 53 % 1,006.00 mbar 2.56 m/s 222.93 Deg 0 ug/m3
2021-06-17 13:00 0 ug/m3 95.02 ug/m3 10.3 ug/m3 25.16 C 53.58 % 1,005.96 mbar 2.75 m/s 217.32 Deg 0 ug/m3
2021-06-17 12:00 0 ug/m3 93.27 ug/m3 10.5 ug/m3 24.91 C 54.12 % 1,006.14 mbar 2.88 m/s 212.97 Deg 0 ug/m3
2021-06-17 11:00 0 ug/m3 92.42 ug/m3 9.1 ug/m3 25.01 C 51.56 % 1,006.17 mbar 2.8 m/s 214.52 Deg 0 ug/m3
2021-06-17 10:00 0 ug/m3 93.39 ug/m3 10.8 ug/m3 24.69 C 52.07 % 1,005.94 mbar 2.49 m/s 214.5 Deg 0 ug/m3
2021-06-17 09:00 0 ug/m3 86.87 ug/m3 13.5 ug/m3 24.31 C 55.56 % 1,005.49 mbar 2.36 m/s 193.25 Deg 0 ug/m3
2021-06-17 08:00 0 ug/m3 82.77 ug/m3 22.5 ug/m3 23.43 C 61 % 1,005.24 mbar 1.92 m/s 183.05 Deg 0 ug/m3
2021-06-17 07:00 0 ug/m3 44.64 ug/m3 12.3 ug/m3 22.49 C 72.78 % 1,005.19 mbar 1.06 m/s 180.83 Deg 0 ug/m3
2021-06-17 06:00 0 ug/m3 52.33 ug/m3 8.3 ug/m3 20.48 C 83.02 % 1,005.17 mbar 0.36 m/s 246.31 Deg 0 ug/m3
2021-06-17 05:00 0 ug/m3 63.65 ug/m3 7.4 ug/m3 19.66 C 84.28 % 1,004.88 mbar 0.28 m/s 240.53 Deg 0 ug/m3
2021-06-17 04:00 0 ug/m3 69.8 ug/m3 9 ug/m3 19.81 C 82.25 % 1,004.45 mbar 0.44 m/s 264.57 Deg 0 ug/m3
2021-06-17 03:00 0 ug/m3 76.06 ug/m3 5 ug/m3 20.24 C 79.66 % 1,004.42 mbar 0.43 m/s 236.7 Deg 0 ug/m3
2021-06-17 02:00 0 ug/m3 80.38 ug/m3 5.3 ug/m3 20.55 C 77.33 % 1,005.00 mbar 0.39 m/s 217.58 Deg 0 ug/m3
2021-06-17 01:00 0 ug/m3 85.89 ug/m3 6.4 ug/m3 20.88 C 74.93 % 1,005.35 mbar 0.56 m/s 235.02 Deg 0 ug/m3
2021-06-17 00:00 0 ug/m3 84.08 ug/m3 7.7 ug/m3 21.13 C 72.71 % 1,005.32 mbar 0.66 m/s 233.49 Deg 0 ug/m3
2021-06-16 23:00 0 ug/m3 84.55 ug/m3 7.1 ug/m3 21.59 C 71.51 % 1,005.21 mbar 0.64 m/s 215.38 Deg 0 ug/m3
2021-06-16 22:00 0 ug/m3 88.04 ug/m3 7.2 ug/m3 21.88 C 69.67 % 1,005.06 mbar 1.15 m/s 195.83 Deg 0 ug/m3
2021-06-16 21:00 0 ug/m3 91.16 ug/m3 6.7 ug/m3 22.17 C 65.99 % 1,004.62 mbar 1.52 m/s 199.32 Deg 0 ug/m3
2021-06-16 20:00 0 ug/m3 89.48 ug/m3 12.5 ug/m3 22.5 C 61.6 % 1,004.29 mbar 2 m/s 212.02 Deg 0 ug/m3
2021-06-16 19:00 0 ug/m3 91.75 ug/m3 11.8 ug/m3 23.14 C 59.45 % 1,004.10 mbar 2.46 m/s 217.88 Deg 0 ug/m3
2021-06-16 18:00 0 ug/m3 91.48 ug/m3 7.2 ug/m3 24.1 C 54.95 % 1,003.80 mbar 2.5 m/s 218.12 Deg 0 ug/m3
2021-06-16 17:00 0 ug/m3 90.99 ug/m3 7.8 ug/m3 24.79 C 49.61 % 1,003.85 mbar 2.95 m/s 214.3 Deg 0 ug/m3
2021-06-16 16:00 0 ug/m3 92.46 ug/m3 12.5 ug/m3 25.52 C 42.56 % 1,004.14 mbar 2.78 m/s 221.65 Deg 0 ug/m3
2021-06-16 15:00 0 ug/m3 93.65 ug/m3 18.2 ug/m3 26.08 C 37.98 % 1,004.22 mbar 2.89 m/s 217.82 Deg 0 ug/m3
2021-06-16 14:00 0 ug/m3 98.16 ug/m3 20.5 ug/m3 26.35 C 33.92 % 1,004.33 mbar 3.05 m/s 220.32 Deg 0 ug/m3
2021-06-16 13:00 17.67 ug/m3 96.18 ug/m3 18 ug/m3 26.4 C 35.36 % 1,004.55 mbar 2.48 m/s 203.55 Deg 3.94 ug/m3
2021-06-16 12:00 12.96 ug/m3 97.07 ug/m3 8.4 ug/m3 25.82 C 47.01 % 1,004.64 mbar 1.98 m/s 237.63 Deg 2.52 ug/m3
2021-06-16 11:00 6.39 ug/m3 98.46 ug/m3 11.9 ug/m3 26.29 C 29.43 % 1,004.70 mbar 1.76 m/s 205.33 Deg 1.45 ug/m3
2021-06-16 10:00 6.8 ug/m3 95.62 ug/m3 14 ug/m3 25.98 C 28.06 % 1,004.62 mbar 1.77 m/s 209.59 Deg 1.49 ug/m3
2021-06-16 09:00 11.32 ug/m3 88.36 ug/m3 20.4 ug/m3 25.27 C 33.57 % 1,004.60 mbar 1.37 m/s 220.22 Deg 2.39 ug/m3
2021-06-16 08:00 27.52 ug/m3 66.49 ug/m3 22.6 ug/m3 23.83 C 53.13 % 1,004.53 mbar 0.76 m/s 210.46 Deg 5.56 ug/m3
2021-06-16 07:00 45.46 ug/m3 45.93 ug/m3 16.5 ug/m3 22.5 C 66.73 % 1,004.64 mbar 0.63 m/s 208.8 Deg 12.74 ug/m3
2021-06-16 06:00 46.21 ug/m3 26.81 ug/m3 10.9 ug/m3 20.09 C 75.63 % 1,004.65 mbar 0.34 m/s 291.08 Deg 17.43 ug/m3
2021-06-16 05:00 9.85 ug/m3 57.33 ug/m3 9.2 ug/m3 19.02 C 76.7 % 1,004.35 mbar 0.32 m/s 282.94 Deg 0.03 ug/m3
2021-06-16 04:00 7.9 ug/m3 63.95 ug/m3 8.4 ug/m3 19.58 C 73.56 % 1,004.14 mbar 0.51 m/s 247.01 Deg 0.03 ug/m3
2021-06-16 03:00 6.28 ug/m3 75.25 ug/m3 8.9 ug/m3 20.19 C 71.53 % 1,004.33 mbar 0.8 m/s 177.87 Deg 0.1 ug/m3
2021-06-16 02:00 9.6 ug/m3 67.46 ug/m3 10.4 ug/m3 20.44 C 70.33 % 1,004.73 mbar 0.97 m/s 180.67 Deg -0.07 ug/m3
2021-06-16 01:00 7.31 ug/m3 68.74 ug/m3 10.5 ug/m3 20.69 C 68.77 % 1,004.93 mbar 0.94 m/s 173.78 Deg -0.09 ug/m3
2021-06-16 00:00 10.26 ug/m3 69.14 ug/m3 8.5 ug/m3 21.19 C 68.08 % 1,005.13 mbar 1.39 m/s 164.05 Deg 0.04 ug/m3
2021-06-15 23:00 5.44 ug/m3 78.76 ug/m3 8.5 ug/m3 21.56 C 67.38 % 1,005.14 mbar 1.51 m/s 164.35 Deg 0.25 ug/m3
2021-06-15 22:00 4.46 ug/m3 86.93 ug/m3 9.9 ug/m3 21.87 C 66.3 % 1,005.03 mbar 1.89 m/s 165.07 Deg 0.11 ug/m3
2021-06-15 21:00 4.62 ug/m3 88.92 ug/m3 11 ug/m3 22.16 C 64.44 % 1,004.61 mbar 2.56 m/s 161 Deg 0.25 ug/m3
2021-06-15 20:00 6.27 ug/m3 91.01 ug/m3 12 ug/m3 22.64 C 56.96 % 1,004.28 mbar 2.67 m/s 163.13 Deg 0.28 ug/m3
2021-06-15 19:00 6.71 ug/m3 91.87 ug/m3 15.1 ug/m3 23.28 C 53.89 % 1,004.01 mbar 2.83 m/s 139.75 Deg 0.47 ug/m3
2021-06-15 18:00 7.3 ug/m3 93.06 ug/m3 14.4 ug/m3 23.78 C 58.2 % 1,003.57 mbar 3.12 m/s 153.88 Deg 0.83 ug/m3
2021-06-15 17:00 8.65 ug/m3 92.34 ug/m3 15 ug/m3 24.24 C 62.16 % 1,003.66 mbar 3.22 m/s 147.92 Deg 1.61 ug/m3
2021-06-15 16:00 8.56 ug/m3 95.69 ug/m3 18.3 ug/m3 24.57 C 63.4 % 1,003.35 mbar 3.53 m/s 139.45 Deg 1.68 ug/m3
2021-06-15 15:00 8.74 ug/m3 99.96 ug/m3 13.6 ug/m3 24.85 C 65.41 % 1,003.38 mbar 3.51 m/s 180.12 Deg 1.93 ug/m3
2021-06-15 14:00 8.92 ug/m3 105.07 ug/m3 18.7 ug/m3 25.2 C 64.31 % 1,003.45 mbar 2.82 m/s 177.82 Deg 1.57 ug/m3
2021-06-15 13:00 5.99 ug/m3 110.58 ug/m3 15.8 ug/m3 24.81 C 68.87 % 1,003.66 mbar 3.28 m/s 215.23 Deg 1.04 ug/m3
2021-06-15 12:00 8.06 ug/m3 117.86 ug/m3 16.4 ug/m3 25.37 C 59.77 % 1,003.70 mbar 3.06 m/s 276.55 Deg 1.38 ug/m3
2021-06-15 11:00 5.97 ug/m3 120.39 ug/m3 13 ug/m3 25.2 C 57.13 % 1,003.61 mbar 2.74 m/s 88.17 Deg 0.82 ug/m3
2021-06-15 10:00 6.6 ug/m3 111.61 ug/m3 15.2 ug/m3 25.23 C 58.72 % 1,003.17 mbar 2.85 m/s 25.7 Deg 0.94 ug/m3
2021-06-15 09:00 7.07 ug/m3 100.96 ug/m3 13.4 ug/m3 24.32 C 67.15 % 1,002.98 mbar 2.48 m/s 104.22 Deg 0.93 ug/m3
2021-06-15 08:00 10.5 ug/m3 89.38 ug/m3 11.5 ug/m3 23.77 C 74.3 % 1,002.63 mbar 2.54 m/s 11.1 Deg 1.35 ug/m3
2021-06-15 07:00 8.93 ug/m3 92.38 ug/m3 11.3 ug/m3 23.07 C 78.51 % 1,002.20 mbar 1.44 m/s 338.05 Deg 0.79 ug/m3
2021-06-15 06:00 5.82 ug/m3 98.72 ug/m3 8.9 ug/m3 22.11 C 79.05 % 1,002.15 mbar 1.17 m/s 330.13 Deg 0.22 ug/m3
2021-06-15 05:00 1.88 ug/m3 96.09 ug/m3 9.2 ug/m3 21.35 C 82.86 % 1,001.94 mbar 0.9 m/s 329.97 Deg 0.06 ug/m3
2021-06-15 04:00 1.38 ug/m3 88.99 ug/m3 10.3 ug/m3 21.54 C 83.49 % 1,002.11 mbar 1.12 m/s 312.53 Deg -0.03 ug/m3
2021-06-15 03:00 1.67 ug/m3 89.23 ug/m3 9.3 ug/m3 21.42 C 83.65 % 1,002.27 mbar 0.77 m/s 315.87 Deg 0.07 ug/m3
2021-06-15 02:00 0.77 ug/m3 95.53 ug/m3 11.7 ug/m3 21.83 C 82.27 % 1,002.49 mbar 0.78 m/s 267.36 Deg 0.03 ug/m3
2021-06-15 01:00 2.05 ug/m3 101.42 ug/m3 16 ug/m3 21.49 C 79.14 % 1,002.66 mbar 0.46 m/s 227.39 Deg -0.05 ug/m3
2021-06-15 00:00 5.05 ug/m3 95.38 ug/m3 14.9 ug/m3 21.8 C 82.08 % 1,002.91 mbar 0.51 m/s 244.18 Deg 0.02 ug/m3
2021-06-14 23:00 3.56 ug/m3 101.13 ug/m3 12.6 ug/m3 22.34 C 78.11 % 1,003.27 mbar 0.49 m/s 285.74 Deg -0.06 ug/m3
2021-06-14 22:00 2.61 ug/m3 108.77 ug/m3 11.2 ug/m3 22.78 C 77.31 % 1,003.37 mbar 0.41 m/s 292.68 Deg 0.04 ug/m3
2021-06-14 21:00 3.16 ug/m3 112.66 ug/m3 8.7 ug/m3 23.3 C 66.09 % 1,003.16 mbar 0.64 m/s 243.94 Deg 0.06 ug/m3
2021-06-14 20:00 3.31 ug/m3 118.41 ug/m3 13.1 ug/m3 23.83 C 63.3 % 1,002.77 mbar 0.85 m/s 321.85 Deg 0.12 ug/m3
2021-06-14 19:00 3.76 ug/m3 116.41 ug/m3 11.8 ug/m3 25.26 C 55.01 % 1,002.58 mbar 1.25 m/s 307.4 Deg 0.13 ug/m3
2021-06-14 18:00 5.07 ug/m3 116.7 ug/m3 17.5 ug/m3 25.68 C 56.86 % 1,002.47 mbar 1.51 m/s 244.28 Deg 0.51 ug/m3
2021-06-14 17:00 5.95 ug/m3 124.49 ug/m3 17.9 ug/m3 26.42 C 49.05 % 1,002.87 mbar 2.51 m/s 218.47 Deg 0.67 ug/m3
2021-06-14 16:00 10.22 ug/m3 121.88 ug/m3 14.3 ug/m3 27.36 C 45.02 % 1,003.24 mbar 2.18 m/s 214.98 Deg 0.99 ug/m3
2021-06-14 15:00 9.28 ug/m3 123.66 ug/m3 9.4 ug/m3 27.29 C 40.77 % 1,003.72 mbar 2.09 m/s 241.23 Deg 1.3 ug/m3
2021-06-14 14:00 5.73 ug/m3 117.08 ug/m3 13.6 ug/m3 26.71 C 49.09 % 1,004.01 mbar 2.29 m/s 246.62 Deg 0.86 ug/m3
2021-06-14 13:00 4.38 ug/m3 116.97 ug/m3 28.9 ug/m3 26.22 C 51.86 % 1,004.47 mbar 2.12 m/s 29.53 Deg 0.54 ug/m3
2021-06-14 12:00 6.1 ug/m3 113.67 ug/m3 15.6 ug/m3 25.85 C 53.69 % 1,004.63 mbar 2.24 m/s 188.8 Deg 1.02 ug/m3
2021-06-14 11:00 7.17 ug/m3 107.8 ug/m3 15.1 ug/m3 26.03 C 58.04 % 1,004.47 mbar 2.63 m/s 19.68 Deg 1.05 ug/m3
2021-06-14 10:00 6.95 ug/m3 100.21 ug/m3 15.8 ug/m3 26.89 C 56.76 % 1,004.08 mbar 1.72 m/s 343.03 Deg 1.45 ug/m3
2021-06-14 09:00 7.65 ug/m3 93.45 ug/m3 14.4 ug/m3 25.37 C 67.86 % 1,004.09 mbar 1.54 m/s 335.2 Deg 1.86 ug/m3
2021-06-14 08:00 7.24 ug/m3 97.75 ug/m3 8.1 ug/m3 23.91 C 73.66 % 1,004.00 mbar 1.93 m/s 310.13 Deg 0.88 ug/m3
2021-06-14 07:00 7.72 ug/m3 99.68 ug/m3 15 ug/m3 22.87 C 77.35 % 1,004.14 mbar 1.14 m/s 313.68 Deg 0.59 ug/m3
2021-06-14 06:00 12.6 ug/m3 92.5 ug/m3 14.6 ug/m3 21.61 C 82.03 % 1,004.35 mbar 0.95 m/s 300.37 Deg 0.37 ug/m3
2021-06-14 05:00 10.2 ug/m3 98.06 ug/m3 12.6 ug/m3 21.53 C 66.34 % 1,004.10 mbar 0.72 m/s 307.28 Deg 0.08 ug/m3
2021-06-14 04:00 14.71 ug/m3 83.49 ug/m3 9.2 ug/m3 21.17 C 48.47 % 1,004.11 mbar 0.44 m/s 240.35 Deg 0.04 ug/m3
2021-06-14 03:00 9.88 ug/m3 91.2 ug/m3 13.5 ug/m3 21.71 C 47.79 % 1,004.33 mbar 0.47 m/s 220.56 Deg -0 ug/m3
2021-06-14 02:00 2.46 ug/m3 104.47 ug/m3 14 ug/m3 21.93 C 50.73 % 1,004.87 mbar 0.43 m/s 258.21 Deg 0.09 ug/m3
2021-06-14 01:00 1.04 ug/m3 117.05 ug/m3 15.4 ug/m3 22.39 C 51.58 % 1,005.34 mbar 0.55 m/s 318.11 Deg -0.03 ug/m3
2021-06-14 00:00 2.06 ug/m3 113.73 ug/m3 13.9 ug/m3 22.65 C 48.88 % 1,005.74 mbar 0.49 m/s 317.11 Deg 0 ug/m3
2021-06-13 23:00 2.89 ug/m3 107.32 ug/m3 18.3 ug/m3 21.8 C 62 % 1,005.98 mbar 0.64 m/s 325.13 Deg 0.03 ug/m3
2021-06-13 22:00 5.21 ug/m3 105.2 ug/m3 19.5 ug/m3 21.91 C 80.42 % 1,006.07 mbar 0.56 m/s 326.82 Deg -0.08 ug/m3
2021-06-13 21:00 4.5 ug/m3 112.76 ug/m3 14.9 ug/m3 22.17 C 80.6 % 1,005.79 mbar 1.07 m/s 343.59 Deg 0.08 ug/m3
2021-06-13 20:00 8.86 ug/m3 100.08 ug/m3 11.9 ug/m3 22.92 C 77.23 % 1,005.48 mbar 0.88 m/s 337.18 Deg 0.08 ug/m3
2021-06-13 19:00 3.37 ug/m3 105.36 ug/m3 15.7 ug/m3 24.09 C 71.18 % 1,005.31 mbar 1.25 m/s 323.85 Deg 0.17 ug/m3
2021-06-13 18:00 2.31 ug/m3 126.84 ug/m3 16.5 ug/m3 25.54 C 61.4 % 1,005.19 mbar 1.43 m/s 296.51 Deg 0.07 ug/m3
2021-06-13 17:00 6.86 ug/m3 126.96 ug/m3 18.4 ug/m3 26.12 C 55.02 % 1,005.26 mbar 1.61 m/s 253.53 Deg 0.56 ug/m3
2021-06-13 16:00 4.15 ug/m3 138.06 ug/m3 17.6 ug/m3 26.31 C 52.89 % 1,005.27 mbar 2.36 m/s 212.77 Deg 0.32 ug/m3
2021-06-13 15:00 3.84 ug/m3 138.2 ug/m3 14.4 ug/m3 27.05 C 49.25 % 1,005.32 mbar 2.27 m/s 222.25 Deg 0.23 ug/m3
2021-06-13 14:00 3.27 ug/m3 133.06 ug/m3 14.2 ug/m3 26.83 C 45.15 % 1,005.72 mbar 1.92 m/s 217.85 Deg 0.24 ug/m3
2021-06-13 13:00 4.01 ug/m3 129.09 ug/m3 15.4 ug/m3 26.21 C 46.86 % 1,006.17 mbar 2.14 m/s 227.22 Deg 0.5 ug/m3
2021-06-13 12:00 3.32 ug/m3 125.58 ug/m3 17.1 ug/m3 25.87 C 46.95 % 1,006.44 mbar 2.18 m/s 275.25 Deg 0.35 ug/m3
2021-06-13 11:00 4.58 ug/m3 120.04 ug/m3 18 ug/m3 25.91 C 47.89 % 1,006.25 mbar 2.09 m/s 237.35 Deg 0.62 ug/m3
2021-06-13 10:00 3.67 ug/m3 113.44 ug/m3 14.6 ug/m3 24.83 C 56.13 % 1,006.15 mbar 1.64 m/s 227.56 Deg 0.46 ug/m3
2021-06-13 09:00 4.04 ug/m3 107.93 ug/m3 17 ug/m3 23.8 C 68.75 % 1,006.11 mbar 1.34 m/s 255.6 Deg 0.67 ug/m3
2021-06-13 08:00 4.77 ug/m3 105.47 ug/m3 11.1 ug/m3 23.13 C 72.13 % 1,005.97 mbar 1.16 m/s 14.38 Deg 0.6 ug/m3
2021-06-13 07:00 4.77 ug/m3 97.49 ug/m3 21.1 ug/m3 21.99 C 84.31 % 1,005.51 mbar 0.67 m/s 262.85 Deg 0.36 ug/m3
2021-06-13 06:00 14.67 ug/m3 69.84 ug/m3 19.8 ug/m3 20.16 C 91.81 % 1,005.03 mbar 0.47 m/s 259.97 Deg 0.49 ug/m3
2021-06-13 05:00 4.87 ug/m3 77.04 ug/m3 16.7 ug/m3 19.79 C 90.91 % 1,004.82 mbar 0.62 m/s 280.94 Deg 0.06 ug/m3
2021-06-13 04:00 2.35 ug/m3 80.92 ug/m3 15.6 ug/m3 19.83 C 90.29 % 1,004.57 mbar 0.54 m/s 309.34 Deg 0.01 ug/m3
2021-06-13 03:00 1.66 ug/m3 91.28 ug/m3 15.6 ug/m3 20.33 C 88.3 % 1,004.88 mbar 0.65 m/s 329.43 Deg 0.09 ug/m3
2021-06-13 02:00 3.2 ug/m3 90.45 ug/m3 11.7 ug/m3 20.76 C 80.51 % 1,005.07 mbar 0.66 m/s 252.01 Deg 0.09 ug/m3
2021-06-13 01:00 4.5 ug/m3 94.4 ug/m3 11.9 ug/m3 21.24 C 72.18 % 1,005.31 mbar 0.47 m/s 314.47 Deg -0.08 ug/m3
2021-06-13 00:00 10.66 ug/m3 88.31 ug/m3 13.8 ug/m3 21.77 C 62.15 % 1,005.60 mbar 0.68 m/s 314.86 Deg 0.06 ug/m3
2021-06-12 23:00 5.39 ug/m3 101.99 ug/m3 14.3 ug/m3 22.48 C 51.8 % 1,005.52 mbar 0.53 m/s 311.54 Deg -0.02 ug/m3
2021-06-12 22:00 10.31 ug/m3 92.11 ug/m3 16.3 ug/m3 21.69 C 61.15 % 1,005.24 mbar 0.61 m/s 296.23 Deg 0.07 ug/m3
2021-06-12 21:00 9.2 ug/m3 96.04 ug/m3 14.6 ug/m3 21.94 C 79.41 % 1,004.90 mbar 0.96 m/s 325.64 Deg -0.1 ug/m3
2021-06-12 20:00 4.26 ug/m3 102.72 ug/m3 17.6 ug/m3 22.48 C 79.69 % 1,004.69 mbar 1.33 m/s 341.29 Deg -0.11 ug/m3
2021-06-12 19:00 8.6 ug/m3 104.04 ug/m3 18.2 ug/m3 23.34 C 73.96 % 1,004.43 mbar 1.36 m/s 343.57 Deg 0.18 ug/m3
2021-06-12 18:00 2.88 ug/m3 116.15 ug/m3 18.8 ug/m3 24.92 C 63.88 % 1,003.80 mbar 1.41 m/s 325.25 Deg 0.12 ug/m3
2021-06-12 17:00 6.67 ug/m3 113.43 ug/m3 18.4 ug/m3 26.15 C 62.41 % 1,003.71 mbar 1.6 m/s 304.75 Deg 0.81 ug/m3
2021-06-12 16:00 4.01 ug/m3 114.83 ug/m3 16.4 ug/m3 26.7 C 61.27 % 1,003.90 mbar 1.72 m/s 226.32 Deg 0.38 ug/m3
2021-06-12 15:00 9.95 ug/m3 113.74 ug/m3 14.7 ug/m3 26.47 C 61.63 % 1,003.70 mbar 2.17 m/s 245.17 Deg 1.12 ug/m3
2021-06-12 14:00 7.85 ug/m3 111.84 ug/m3 12 ug/m3 27.37 C 55.69 % 1,003.99 mbar 2.19 m/s 219.98 Deg 1.2 ug/m3
2021-06-12 13:00 2.22 ug/m3 119.61 ug/m3 17.1 ug/m3 28.33 C 39.84 % 1,004.24 mbar 2.1 m/s 180.33 Deg 0.35 ug/m3
2021-06-12 12:00 3.63 ug/m3 117.08 ug/m3 18.8 ug/m3 27.81 C 42.47 % 1,004.46 mbar 1.78 m/s 174.72 Deg 0.37 ug/m3
2021-06-12 11:00 5.2 ug/m3 114.56 ug/m3 13.9 ug/m3 26.79 C 42.94 % 1,004.67 mbar 1.69 m/s 343.82 Deg 0.56 ug/m3
2021-06-12 10:00 5.96 ug/m3 109.21 ug/m3 13.2 ug/m3 25.2 C 53.66 % 1,004.75 mbar 1.87 m/s 341.45 Deg 0.78 ug/m3
2021-06-12 09:00 3.44 ug/m3 106.27 ug/m3 12.3 ug/m3 24.11 C 62.43 % 1,004.58 mbar 1.66 m/s 337.9 Deg 0.48 ug/m3
2021-06-12 08:00 4.65 ug/m3 103.46 ug/m3 9.1 ug/m3 22.85 C 73.09 % 1,004.57 mbar 1.34 m/s 337.74 Deg 0.77 ug/m3
2021-06-12 07:00 5.43 ug/m3 100.96 ug/m3 14.9 ug/m3 21.41 C 82.88 % 1,004.41 mbar 1.59 m/s 326.05 Deg 0.5 ug/m3
2021-06-12 06:00 6.28 ug/m3 91.28 ug/m3 14.7 ug/m3 20.12 C 90.97 % 1,004.34 mbar 1.2 m/s 320.85 Deg 0.15 ug/m3
2021-06-12 05:00 4.45 ug/m3 85.85 ug/m3 15.5 ug/m3 19.71 C 91.14 % 1,004.03 mbar 0.77 m/s 343.59 Deg 0 ug/m3
2021-06-12 04:00 3.06 ug/m3 95.54 ug/m3 20.7 ug/m3 19.99 C 88.3 % 1,003.76 mbar 0.59 m/s 298.91 Deg 0.09 ug/m3
2021-06-12 03:00 4.44 ug/m3 79.29 ug/m3 22 ug/m3 19.64 C 83.71 % 1,003.79 mbar 0.44 m/s 227.52 Deg 0.06 ug/m3
2021-06-12 02:00 6.62 ug/m3 71.14 ug/m3 20.4 ug/m3 19.72 C 84.77 % 1,003.95 mbar 0.5 m/s 294.21 Deg 0.09 ug/m3
2021-06-12 01:00 10.31 ug/m3 80.71 ug/m3 24.6 ug/m3 20.18 C 80.23 % 1,004.15 mbar 0.53 m/s 291.82 Deg -0.15 ug/m3
2021-06-12 00:00 20.01 ug/m3 66.32 ug/m3 22.9 ug/m3 20.32 C 83.21 % 1,004.20 mbar 0.47 m/s 278.41 Deg 0.06 ug/m3
2021-06-11 23:00 10.72 ug/m3 85.04 ug/m3 19.8 ug/m3 20.9 C 84.15 % 1,004.25 mbar 0.6 m/s 300.4 Deg 0.06 ug/m3
2021-06-11 22:00 9.41 ug/m3 100.34 ug/m3 16.2 ug/m3 21.33 C 81.49 % 1,004.08 mbar 0.85 m/s 339.87 Deg -0 ug/m3
2021-06-11 21:00 8.23 ug/m3 111.22 ug/m3 13.8 ug/m3 21.76 C 76.74 % 1,003.42 mbar 0.8 m/s 246.55 Deg -0.08 ug/m3
2021-06-11 20:00 5.14 ug/m3 118.47 ug/m3 11.1 ug/m3 22.14 C 74.41 % 1,002.95 mbar 1.39 m/s 18.65 Deg -0.07 ug/m3
2021-06-11 19:00 6.43 ug/m3 113.75 ug/m3 17.5 ug/m3 23.29 C 70.06 % 1,002.47 mbar 1.84 m/s 19.6 Deg 0.16 ug/m3
2021-06-11 18:00 5.29 ug/m3 114.54 ug/m3 18.4 ug/m3 24.94 C 60.42 % 1,002.07 mbar 1.51 m/s 178.38 Deg 0.25 ug/m3
2021-06-11 17:00 8.03 ug/m3 124.32 ug/m3 17.4 ug/m3 25.71 C 57.5 % 1,001.98 mbar 2.11 m/s 17.03 Deg 0.67 ug/m3
2021-06-11 16:00 8.31 ug/m3 130.9 ug/m3 16.8 ug/m3 26.46 C 52.15 % 1,002.05 mbar 2.02 m/s 29.6 Deg 0.56 ug/m3
2021-06-11 15:00 6.65 ug/m3 134.38 ug/m3 18.2 ug/m3 26.88 C 47.59 % 1,002.31 mbar 1.94 m/s 169.19 Deg 0.49 ug/m3
2021-06-11 14:00 6.73 ug/m3 61.21 ug/m3 15 ug/m3 26.11 C 50.77 % 1,002.71 mbar 1.78 m/s 176.95 Deg 0.6 ug/m3

It is to be noted that the data is provisional and subject to quality assurance procedures. For validated data kindly refer your request to contact.air@era.org.mt